createdAt,value
2023-01-10T00:00:04.086Z,71.81
2023-01-10T00:00:17.394Z,71.88
2023-01-10T00:00:50.081Z,71.85
2023-01-10T00:01:08.060Z,71.78
2023-01-10T00:01:21.413Z,71.81
2023-01-10T00:01:34.311Z,71.76
2023-01-10T00:01:47.355Z,71.73
2023-01-10T00:02:02.618Z,71.76
2023-01-10T00:02:16.649Z,71.76
2023-01-10T00:02:29.565Z,71.77
2023-01-10T00:02:42.405Z,71.80
2023-01-10T00:02:55.292Z,71.81
2023-01-10T00:03:09.431Z,71.83
2023-01-10T00:03:22.394Z,71.95
2023-01-10T00:03:35.296Z,72.04
2023-01-10T00:03:48.096Z,71.99
2023-01-10T00:04:01.167Z,71.96
2023-01-10T00:04:14.128Z,71.88
2023-01-10T00:04:27.279Z,71.76
2023-01-10T00:04:40.810Z,71.75
2023-01-10T00:04:53.769Z,71.73
2023-01-10T00:05:07.405Z,71.75
2023-01-10T00:05:20.502Z,71.72
2023-01-10T00:05:53.235Z,71.82
2023-01-10T00:06:06.604Z,71.94
2023-01-10T00:06:20.070Z,71.91
2023-01-10T00:06:33.415Z,71.92
2023-01-10T00:07:06.480Z,71.90
2023-01-10T00:07:19.623Z,71.91
2023-01-10T00:07:32.456Z,71.96
2023-01-10T00:07:45.965Z,72.00
2023-01-10T00:08:02.051Z,71.99
2023-01-10T00:08:16.010Z,71.97
2023-01-10T00:08:28.895Z,71.95
2023-01-10T00:08:41.734Z,71.99
2023-01-10T00:08:57.376Z,72.07
2023-01-10T00:09:11.576Z,72.05
2023-01-10T00:09:24.415Z,71.99
2023-01-10T00:09:38.304Z,71.99
2023-01-10T00:09:53.372Z,72.00
2023-01-10T00:10:06.523Z,72.02
2023-01-10T00:10:19.525Z,72.02
2023-01-10T00:10:33.091Z,72.07
2023-01-10T00:10:48.179Z,72.05
2023-01-10T00:11:22.210Z,71.98
2023-01-10T00:11:53.806Z,71.86
2023-01-10T00:12:44.965Z,71.70
2023-01-10T00:13:24.436Z,71.61
2023-01-10T00:13:37.979Z,71.65
2023-01-10T00:13:55.524Z,71.57
2023-01-10T00:14:08.656Z,71.55
2023-01-10T00:14:21.787Z,71.55
2023-01-10T00:14:36.954Z,71.56
2023-01-10T00:14:50.115Z,71.60
2023-01-10T00:15:02.948Z,71.67
2023-01-10T00:15:15.861Z,71.70
2023-01-10T00:15:49.793Z,71.65
2023-01-10T00:16:08.466Z,71.71
2023-01-10T00:16:42.799Z,71.75
2023-01-10T00:16:56.898Z,71.66
2023-01-10T00:17:09.723Z,71.59
2023-01-10T00:17:22.770Z,71.66
2023-01-10T00:17:35.868Z,71.76
2023-01-10T00:17:48.745Z,71.86
2023-01-10T00:18:02.790Z,71.93
2023-01-10T00:18:15.776Z,71.88
2023-01-10T00:18:28.568Z,71.91
2023-01-10T00:18:41.743Z,71.85
2023-01-10T00:18:54.842Z,71.82
2023-01-10T00:19:09.689Z,71.80
2023-01-10T00:19:22.496Z,71.79
2023-01-10T00:19:35.372Z,71.81
2023-01-10T00:19:48.289Z,71.92
2023-01-10T00:20:01.201Z,71.94
2023-01-10T00:20:14.080Z,71.94
2023-01-10T00:20:26.940Z,71.96
2023-01-10T00:20:39.844Z,72.03
2023-01-10T00:20:52.728Z,71.95
2023-01-10T00:21:09.433Z,71.94
2023-01-10T00:21:22.329Z,71.92
2023-01-10T00:21:35.160Z,71.83
2023-01-10T00:21:48.035Z,71.79
2023-01-10T00:22:05.774Z,71.93
2023-01-10T00:22:38.513Z,71.95
2023-01-10T00:22:55.787Z,71.77
2023-01-10T00:23:08.576Z,71.80
2023-01-10T00:23:22.662Z,71.80
2023-01-10T00:23:36.555Z,71.81
2023-01-10T00:24:19.429Z,71.75
2023-01-10T00:24:32.268Z,71.70
2023-01-10T00:24:45.483Z,71.72
2023-01-10T00:25:21.609Z,71.72
2023-01-10T00:25:36.171Z,71.81
2023-01-10T00:26:09.262Z,71.77
2023-01-10T00:26:22.591Z,71.74
2023-01-10T00:26:35.597Z,71.77
2023-01-10T00:26:53.255Z,71.73
2023-01-10T00:27:26.337Z,71.68
2023-01-10T00:27:39.579Z,71.76
2023-01-10T00:28:10.889Z,71.83
2023-01-10T00:28:24.373Z,71.80
2023-01-10T00:28:39.651Z,71.65
2023-01-10T00:28:52.748Z,71.59
2023-01-10T00:29:07.854Z,71.62
2023-01-10T00:29:21.973Z,71.66
2023-01-10T00:29:35.348Z,71.63
2023-01-10T00:29:49.670Z,71.71
2023-01-10T00:30:13.633Z,71.74
2023-01-10T00:30:26.609Z,71.76
2023-01-10T00:31:06.218Z,71.86
2023-01-10T00:31:19.552Z,71.79
2023-01-10T00:31:32.475Z,71.97
2023-01-10T00:32:05.305Z,71.95
2023-01-10T00:32:19.183Z,71.96
2023-01-10T00:32:51.932Z,71.90
2023-01-10T00:33:06.737Z,71.67
2023-01-10T00:33:19.785Z,71.76
2023-01-10T00:33:34.306Z,71.80
2023-01-10T00:33:47.313Z,71.81
2023-01-10T00:34:01.312Z,71.75
2023-01-10T00:34:15.148Z,71.68
2023-01-10T00:34:28.023Z,71.65
2023-01-10T00:35:19.098Z,71.72
2023-01-10T00:35:32.166Z,71.78
2023-01-10T00:35:45.432Z,71.77
2023-01-10T00:35:59.076Z,71.88
2023-01-10T00:36:50.329Z,71.94
2023-01-10T00:37:12.367Z,71.92
2023-01-10T00:37:45.111Z,71.75
2023-01-10T00:38:15.905Z,71.81
2023-01-10T00:38:31.094Z,71.84
2023-01-10T00:38:43.941Z,72.01
2023-01-10T00:38:56.814Z,71.99
2023-01-10T00:39:11.287Z,71.94
2023-01-10T00:39:27.443Z,71.80
2023-01-10T00:39:40.854Z,71.71
2023-01-10T00:39:54.144Z,71.72
2023-01-10T00:40:10.747Z,71.71
2023-01-10T00:40:24.093Z,71.71
2023-01-10T00:40:36.927Z,71.59
2023-01-10T00:41:29.600Z,71.38
2023-01-10T00:42:01.307Z,71.43
2023-01-10T00:42:33.216Z,71.78
2023-01-10T00:43:24.452Z,72.05
2023-01-10T00:43:56.016Z,72.02
2023-01-10T00:44:28.766Z,72.10
2023-01-10T00:44:42.035Z,71.80
2023-01-10T00:44:54.920Z,71.75
2023-01-10T00:45:08.199Z,71.73
2023-01-10T00:45:22.605Z,71.73
2023-01-10T00:45:35.503Z,71.64
2023-01-10T00:45:48.551Z,71.70
2023-01-10T00:46:04.815Z,71.80
2023-01-10T00:46:37.492Z,71.94
2023-01-10T00:46:50.294Z,71.95
2023-01-10T00:47:03.375Z,71.95
2023-01-10T00:47:16.732Z,71.85
2023-01-10T00:47:29.753Z,71.83
2023-01-10T00:47:42.983Z,71.79
2023-01-10T00:47:55.812Z,71.82
2023-01-10T00:48:09.518Z,71.88
2023-01-10T00:48:22.426Z,71.82
2023-01-10T00:48:35.254Z,71.78
2023-01-10T00:48:48.073Z,71.74
2023-01-10T00:49:00.929Z,71.72
2023-01-10T00:49:16.290Z,71.69
2023-01-10T00:49:29.164Z,71.66
2023-01-10T00:49:42.496Z,71.70
2023-01-10T00:49:55.398Z,71.75
2023-01-10T00:50:08.832Z,71.74
2023-01-10T00:50:21.766Z,71.70
2023-01-10T00:50:34.672Z,71.67
2023-01-10T00:50:47.538Z,71.63
2023-01-10T00:51:00.802Z,71.63
2023-01-10T00:51:14.094Z,71.63
2023-01-10T00:51:26.926Z,71.68
2023-01-10T00:51:40.187Z,71.78
2023-01-10T00:51:58.143Z,71.92
2023-01-10T00:52:11.240Z,72.08
2023-01-10T00:52:24.100Z,72.18
2023-01-10T00:52:37.495Z,72.13
2023-01-10T00:52:50.720Z,72.04
2023-01-10T00:53:05.647Z,71.96
2023-01-10T00:53:18.482Z,71.90
2023-01-10T00:53:31.810Z,71.83
2023-01-10T00:53:45.698Z,71.76
2023-01-10T00:53:59.367Z,71.72
2023-01-10T00:54:13.175Z,71.67
2023-01-10T00:54:45.875Z,71.67
2023-01-10T00:54:58.738Z,71.55
2023-01-10T00:55:11.563Z,71.45
2023-01-10T00:55:44.313Z,71.35
2023-01-10T00:55:57.205Z,71.46
2023-01-10T00:56:10.092Z,71.46
2023-01-10T00:56:23.244Z,71.51
2023-01-10T00:56:37.121Z,71.61
2023-01-10T00:56:49.933Z,71.68
2023-01-10T00:57:03.295Z,71.63
2023-01-10T00:57:18.358Z,71.72
2023-01-10T00:57:31.209Z,71.77
2023-01-10T00:57:44.599Z,71.82
2023-01-10T00:57:57.397Z,71.84
2023-01-10T00:58:11.762Z,71.86
2023-01-10T00:58:24.633Z,71.97
2023-01-10T00:58:38.481Z,72.01
2023-01-10T00:58:51.285Z,71.98
2023-01-10T00:59:04.807Z,71.97
2023-01-10T00:59:18.673Z,71.89
2023-01-10T00:59:31.525Z,71.77
2023-01-10T00:59:44.550Z,71.74
2023-01-10T00:59:57.912Z,71.72
2023-01-10T01:00:12.175Z,71.75
2023-01-10T01:00:25.010Z,71.83
2023-01-10T01:00:49.719Z,71.79
2023-01-10T01:01:02.813Z,71.82
2023-01-10T01:01:16.195Z,71.82
2023-01-10T01:01:29.681Z,71.88
2023-01-10T01:01:42.600Z,71.95
2023-01-10T01:01:58.223Z,71.94
2023-01-10T01:02:11.210Z,71.97
2023-01-10T01:02:24.291Z,71.96
2023-01-10T01:02:37.706Z,71.94
2023-01-10T01:02:51.689Z,71.96
2023-01-10T01:03:06.158Z,72.11
2023-01-10T01:03:20.569Z,72.06
2023-01-10T01:03:33.976Z,72.09
2023-01-10T01:03:47.325Z,72.08
2023-01-10T01:04:00.149Z,72.24
2023-01-10T01:04:12.978Z,72.31
2023-01-10T01:04:27.565Z,72.30
2023-01-10T01:04:40.474Z,72.22
2023-01-10T01:04:53.754Z,72.24
2023-01-10T01:05:07.773Z,72.27
2023-01-10T01:05:42.068Z,72.33
2023-01-10T01:05:55.342Z,72.34
2023-01-10T01:06:08.636Z,72.20
2023-01-10T01:06:26.487Z,72.06
2023-01-10T01:06:39.286Z,71.96
2023-01-10T01:06:52.203Z,71.93
2023-01-10T01:07:05.484Z,71.99
2023-01-10T01:07:18.313Z,72.05
2023-01-10T01:07:31.164Z,72.14
2023-01-10T01:07:44.002Z,72.05
2023-01-10T01:07:57.292Z,71.90
2023-01-10T01:08:13.882Z,71.77
2023-01-10T01:08:26.741Z,71.82
2023-01-10T01:08:39.838Z,71.92
2023-01-10T01:08:52.676Z,72.01
2023-01-10T01:09:06.406Z,71.92
2023-01-10T01:09:19.254Z,71.88
2023-01-10T01:09:32.545Z,71.89
2023-01-10T01:10:04.578Z,71.89
2023-01-10T01:10:27.123Z,71.84
2023-01-10T01:10:39.961Z,72.04
2023-01-10T01:10:52.832Z,72.09
2023-01-10T01:11:44.229Z,72.11
2023-01-10T01:12:15.113Z,72.13
2023-01-10T01:12:28.237Z,72.17
2023-01-10T01:12:41.273Z,72.18
2023-01-10T01:13:00.479Z,72.12
2023-01-10T01:13:18.995Z,72.11
2023-01-10T01:13:36.404Z,72.13
2023-01-10T01:13:49.305Z,72.12
2023-01-10T01:14:02.113Z,72.19
2023-01-10T01:14:16.977Z,72.27
2023-01-10T01:14:29.829Z,72.23
2023-01-10T01:15:02.558Z,72.18
2023-01-10T01:15:15.360Z,72.09
2023-01-10T01:15:28.808Z,72.01
2023-01-10T01:15:42.498Z,71.87
2023-01-10T01:15:57.982Z,71.79
2023-01-10T01:16:11.198Z,71.79
2023-01-10T01:16:24.105Z,71.79
2023-01-10T01:16:37.114Z,71.91
2023-01-10T01:17:09.827Z,71.96
2023-01-10T01:17:22.925Z,72.00
2023-01-10T01:17:56.036Z,72.00
2023-01-10T01:18:10.657Z,72.04
2023-01-10T01:18:23.979Z,72.12
2023-01-10T01:18:36.784Z,72.03
2023-01-10T01:18:50.466Z,72.01
2023-01-10T01:19:03.841Z,72.03
2023-01-10T01:19:16.710Z,72.04
2023-01-10T01:19:29.554Z,71.95
2023-01-10T01:20:04.440Z,71.77
2023-01-10T01:20:17.716Z,71.48
2023-01-10T01:20:31.264Z,71.53
2023-01-10T01:20:45.873Z,71.49
2023-01-10T01:21:02.321Z,71.53
2023-01-10T01:21:15.197Z,71.72
2023-01-10T01:21:28.404Z,71.78
2023-01-10T01:21:41.820Z,71.75
2023-01-10T01:21:54.658Z,71.70
2023-01-10T01:22:07.809Z,71.66
2023-01-10T01:22:20.637Z,71.62
2023-01-10T01:22:33.491Z,71.66
2023-01-10T01:23:06.212Z,71.67
2023-01-10T01:23:19.194Z,71.54
2023-01-10T01:23:33.453Z,71.62
2023-01-10T01:23:46.313Z,71.64
2023-01-10T01:23:59.357Z,71.70
2023-01-10T01:24:12.245Z,71.79
2023-01-10T01:24:25.577Z,71.79
2023-01-10T01:24:39.510Z,71.76
2023-01-10T01:24:52.329Z,71.77
2023-01-10T01:25:05.668Z,71.71
2023-01-10T01:25:38.384Z,71.73
2023-01-10T01:25:55.232Z,71.88
2023-01-10T01:26:08.171Z,71.96
2023-01-10T01:26:21.181Z,71.92
2023-01-10T01:26:35.331Z,71.92
2023-01-10T01:26:48.232Z,71.89
2023-01-10T01:27:39.223Z,71.92
2023-01-10T01:27:56.684Z,71.91
2023-01-10T01:28:12.733Z,71.89
2023-01-10T01:28:26.655Z,71.86
2023-01-10T01:28:39.732Z,71.88
2023-01-10T01:28:52.801Z,71.79
2023-01-10T01:29:07.743Z,71.84
2023-01-10T01:29:20.771Z,71.82
2023-01-10T01:29:42.995Z,71.79
2023-01-10T01:29:56.535Z,71.77
2023-01-10T01:30:10.420Z,71.79
2023-01-10T01:30:23.232Z,71.75
2023-01-10T01:30:36.051Z,71.71
2023-01-10T01:30:49.414Z,71.66
2023-01-10T01:31:09.926Z,71.50
2023-01-10T01:31:23.008Z,71.50
2023-01-10T01:31:36.152Z,71.63
2023-01-10T01:31:49.373Z,71.78
2023-01-10T01:32:02.677Z,71.76
2023-01-10T01:32:15.757Z,71.78
2023-01-10T01:32:32.844Z,71.85
2023-01-10T01:32:45.859Z,71.99
2023-01-10T01:32:58.909Z,72.02
2023-01-10T01:33:12.037Z,71.97
2023-01-10T01:33:25.094Z,71.86
2023-01-10T01:33:38.375Z,71.84
2023-01-10T01:33:51.730Z,71.75
2023-01-10T01:34:04.702Z,71.53
2023-01-10T01:34:18.554Z,71.37
2023-01-10T01:34:31.568Z,71.37
2023-01-10T01:34:44.367Z,71.51
2023-01-10T01:34:57.174Z,71.56
2023-01-10T01:35:12.527Z,71.68
2023-01-10T01:35:25.332Z,71.89
2023-01-10T01:35:38.235Z,72.04
2023-01-10T01:35:51.509Z,72.13
2023-01-10T01:36:08.813Z,72.10
2023-01-10T01:36:21.689Z,71.99
2023-01-10T01:36:56.989Z,71.89
2023-01-10T01:37:10.006Z,72.04
2023-01-10T01:37:24.943Z,72.11
2023-01-10T01:37:37.816Z,72.09
2023-01-10T01:37:51.069Z,72.20
2023-01-10T01:38:24.694Z,72.10
2023-01-10T01:38:38.427Z,72.05
2023-01-10T01:38:51.720Z,72.06
2023-01-10T01:39:09.299Z,72.03
2023-01-10T01:39:26.596Z,72.11
2023-01-10T01:39:39.480Z,72.23
2023-01-10T01:39:52.322Z,72.18
2023-01-10T01:40:07.497Z,72.17
2023-01-10T01:40:21.327Z,72.15
2023-01-10T01:40:34.553Z,72.21
2023-01-10T01:40:47.818Z,72.32
2023-01-10T01:41:01.666Z,72.30
2023-01-10T01:41:33.117Z,72.17
2023-01-10T01:41:58.373Z,71.98
2023-01-10T01:42:31.345Z,71.97
2023-01-10T01:42:44.861Z,71.87
2023-01-10T01:42:57.776Z,71.97
2023-01-10T01:43:27.714Z,71.98
2023-01-10T01:44:05.345Z,71.94
2023-01-10T01:44:19.432Z,71.90
2023-01-10T01:44:33.901Z,71.94
2023-01-10T01:45:06.488Z,72.05
2023-01-10T01:45:30.896Z,71.97
2023-01-10T01:45:46.444Z,71.97
2023-01-10T01:46:01.054Z,71.94
2023-01-10T01:46:35.262Z,71.98
2023-01-10T01:46:57.608Z,72.03
2023-01-10T01:47:30.349Z,72.08
2023-01-10T01:47:52.175Z,72.21
2023-01-10T01:48:08.157Z,72.14
2023-01-10T01:48:27.841Z,71.91
2023-01-10T01:48:41.502Z,71.89
2023-01-10T01:48:56.209Z,71.99
2023-01-10T01:49:13.780Z,72.07
2023-01-10T01:49:26.661Z,72.13
2023-01-10T01:49:40.602Z,72.10
2023-01-10T01:49:53.392Z,72.22
2023-01-10T01:50:06.347Z,72.17
2023-01-10T01:50:43.400Z,72.20
2023-01-10T01:51:05.649Z,72.19
2023-01-10T01:51:25.360Z,72.04
2023-01-10T01:51:38.193Z,72.00
2023-01-10T01:51:54.340Z,71.97
2023-01-10T01:52:11.089Z,71.81
2023-01-10T01:52:43.815Z,71.84
2023-01-10T01:52:57.249Z,71.65
2023-01-10T01:53:15.263Z,71.59
2023-01-10T01:53:31.249Z,71.67
2023-01-10T01:53:48.985Z,71.59
2023-01-10T01:54:12.077Z,71.52
2023-01-10T01:54:25.172Z,71.64
2023-01-10T01:54:38.021Z,71.88
2023-01-10T01:54:50.870Z,71.94
2023-01-10T01:55:03.818Z,72.01
2023-01-10T01:55:16.728Z,71.99
2023-01-10T01:55:30.916Z,71.96
2023-01-10T01:55:45.832Z,71.94
2023-01-10T01:56:04.942Z,71.98
2023-01-10T01:56:21.254Z,72.01
2023-01-10T01:56:43.054Z,72.18
2023-01-10T01:57:07.386Z,72.18
2023-01-10T01:57:21.033Z,71.97
2023-01-10T01:57:33.915Z,71.95
2023-01-10T01:57:46.764Z,72.00
2023-01-10T01:58:02.888Z,72.04
2023-01-10T01:58:18.088Z,72.16
2023-01-10T01:58:41.284Z,72.24
2023-01-10T01:59:08.839Z,72.30
2023-01-10T01:59:32.157Z,72.30
2023-01-10T01:59:45.533Z,72.17
2023-01-10T02:00:00.230Z,72.21
2023-01-10T02:00:14.454Z,72.17
2023-01-10T02:00:29.436Z,72.22
2023-01-10T02:00:43.258Z,72.18
2023-01-10T02:00:58.521Z,72.19
2023-01-10T02:01:11.993Z,72.22
2023-01-10T02:02:06.618Z,72.19
2023-01-10T02:02:22.039Z,72.37
2023-01-10T02:02:37.172Z,72.36
2023-01-10T02:03:02.184Z,72.46
2023-01-10T02:03:19.351Z,72.41
2023-01-10T02:03:33.078Z,72.21
2023-01-10T02:03:48.492Z,72.15
2023-01-10T02:04:12.355Z,72.26
2023-01-10T02:04:32.319Z,72.24
2023-01-10T02:04:49.843Z,72.21
2023-01-10T02:05:05.530Z,72.05
2023-01-10T02:05:18.946Z,72.04
2023-01-10T02:05:32.778Z,71.97
2023-01-10T02:05:45.857Z,71.96
2023-01-10T02:05:58.926Z,72.00
2023-01-10T02:06:11.745Z,72.09
2023-01-10T02:06:24.618Z,72.26
2023-01-10T02:06:37.510Z,72.29
2023-01-10T02:06:51.501Z,72.37
2023-01-10T02:07:04.805Z,72.46
2023-01-10T02:07:22.355Z,72.47
2023-01-10T02:07:37.884Z,72.41
2023-01-10T02:07:52.675Z,72.33
2023-01-10T02:08:05.573Z,72.31
2023-01-10T02:08:18.422Z,72.30
2023-01-10T02:08:31.306Z,72.40
2023-01-10T02:08:45.599Z,72.47
2023-01-10T02:09:17.798Z,72.43
2023-01-10T02:09:43.475Z,72.49
2023-01-10T02:10:28.311Z,72.29
2023-01-10T02:10:45.097Z,72.33
2023-01-10T02:11:09.358Z,72.33
2023-01-10T02:12:00.953Z,72.37
2023-01-10T02:12:14.860Z,72.14
2023-01-10T02:12:32.228Z,72.15
2023-01-10T02:13:07.028Z,72.16
2023-01-10T02:13:42.686Z,72.34
2023-01-10T02:13:55.963Z,72.01
2023-01-10T02:14:08.914Z,71.86
2023-01-10T02:14:23.181Z,71.83
2023-01-10T02:14:36.443Z,71.86
2023-01-10T02:15:27.736Z,71.88
2023-01-10T02:16:00.940Z,72.08
2023-01-10T02:16:13.930Z,72.03
2023-01-10T02:16:27.148Z,71.99
2023-01-10T02:16:39.982Z,71.96
2023-01-10T02:16:52.993Z,72.00
2023-01-10T02:17:05.970Z,72.05
2023-01-10T02:17:18.827Z,71.97
2023-01-10T02:17:32.001Z,71.88
2023-01-10T02:17:47.157Z,71.82
2023-01-10T02:17:59.982Z,71.85
2023-01-10T02:18:12.819Z,71.97
2023-01-10T02:18:25.635Z,71.94
2023-01-10T02:18:38.632Z,71.89
2023-01-10T02:18:51.490Z,71.81
2023-01-10T02:19:48.747Z,71.75
2023-01-10T02:20:04.334Z,71.45
2023-01-10T02:20:17.993Z,71.45
2023-01-10T02:20:34.237Z,71.56
2023-01-10T02:21:09.712Z,71.62
2023-01-10T02:21:33.939Z,71.84
2023-01-10T02:38:12.403Z,71.60
2023-01-10T02:38:50.550Z,71.60
2023-01-10T02:39:15.652Z,72.04
2023-01-10T02:39:36.059Z,71.99
2023-01-10T02:40:10.371Z,72.03
2023-01-10T02:40:59.330Z,72.29
2023-01-10T02:41:33.829Z,72.51
2023-01-10T02:41:56.654Z,72.43
2023-01-10T02:42:16.282Z,72.38
2023-01-10T02:42:44.907Z,72.62
2023-01-10T02:43:16.211Z,72.39
2023-01-10T02:43:35.191Z,72.37
2023-01-10T02:43:51.918Z,72.35
2023-01-10T02:44:09.294Z,72.18
2023-01-10T02:44:35.757Z,72.19
2023-01-10T02:44:57.112Z,72.17
2023-01-10T02:45:30.970Z,72.16
2023-01-10T02:45:53.292Z,72.30
2023-01-10T02:46:08.135Z,72.41
2023-01-10T02:46:40.886Z,72.38
2023-01-10T02:46:53.762Z,72.26
2023-01-10T02:47:08.015Z,72.27
2023-01-10T02:47:21.271Z,72.15
2023-01-10T02:47:36.921Z,71.96
2023-01-10T02:47:51.570Z,71.85
2023-01-10T02:48:04.616Z,71.78
2023-01-10T02:48:18.062Z,71.72
2023-01-10T02:48:30.901Z,71.64
2023-01-10T02:48:44.242Z,71.69
2023-01-10T02:48:57.167Z,71.82
2023-01-10T02:49:10.047Z,71.89
2023-01-10T02:49:23.083Z,72.01
2023-01-10T02:49:55.817Z,71.93
2023-01-10T02:50:43.628Z,72.02
2023-01-10T02:51:18.836Z,72.05
2023-01-10T02:51:34.951Z,72.24
2023-01-10T02:51:47.743Z,72.02
2023-01-10T02:52:00.796Z,71.96
2023-01-10T02:52:15.342Z,71.94
2023-01-10T02:52:28.364Z,72.04
2023-01-10T02:52:41.235Z,72.08
2023-01-10T02:52:54.236Z,72.12
2023-01-10T02:53:33.959Z,71.99
2023-01-10T02:54:09.869Z,71.75
2023-01-10T02:54:25.918Z,71.73
2023-01-10T02:54:39.206Z,71.70
2023-01-10T02:54:53.128Z,71.77
2023-01-10T02:55:10.605Z,71.79
2023-01-10T02:55:23.979Z,71.83
2023-01-10T02:56:03.875Z,71.81
2023-01-10T02:56:59.392Z,71.75
2023-01-10T02:57:24.444Z,71.88
2023-01-10T02:57:52.297Z,71.99
2023-01-10T02:58:45.116Z,72.03
2023-01-10T02:59:41.485Z,71.80
2023-01-10T02:59:59.026Z,71.59
2023-01-10T03:00:46.195Z,71.71
2023-01-10T03:01:18.249Z,71.90
2023-01-10T03:01:33.672Z,71.84
2023-01-10T03:01:59.055Z,71.83
2023-01-10T04:14:23.582Z,72.71
2023-01-10T04:14:36.517Z,72.60
2023-01-10T04:14:49.532Z,72.59
2023-01-10T04:15:03.297Z,72.49
2023-01-10T04:15:36.172Z,72.51
2023-01-10T04:15:49.033Z,72.57
2023-01-10T04:16:21.951Z,72.75
2023-01-10T04:16:34.863Z,72.76
2023-01-10T04:16:47.944Z,72.77
2023-01-10T04:17:00.804Z,72.80
2023-01-10T04:17:15.130Z,72.78
2023-01-10T04:17:28.317Z,72.75
2023-01-10T04:17:41.355Z,72.73
2023-01-10T04:17:54.406Z,72.76
2023-01-10T04:18:07.207Z,72.73
2023-01-10T04:18:39.949Z,72.80
2023-01-10T04:18:53.185Z,72.75
2023-01-10T04:19:06.496Z,72.64
2023-01-10T04:19:19.529Z,72.62
2023-01-10T04:19:32.320Z,72.55
2023-01-10T04:19:45.396Z,72.58
2023-01-10T04:19:58.222Z,72.66
2023-01-10T04:20:11.765Z,72.65
2023-01-10T04:20:46.542Z,72.57
2023-01-10T04:20:59.405Z,72.73
2023-01-10T04:21:12.471Z,72.73
2023-01-10T04:21:45.215Z,72.74
2023-01-10T04:22:18.156Z,72.75
2023-01-10T04:22:31.146Z,72.62
2023-01-10T04:22:45.699Z,72.63
2023-01-10T04:22:58.768Z,72.61
2023-01-10T04:23:11.610Z,72.61
2023-01-10T04:23:24.585Z,72.59
2023-01-10T04:23:37.587Z,72.60
2023-01-10T04:23:50.429Z,72.57
2023-01-10T04:24:03.312Z,72.71
2023-01-10T04:24:36.013Z,72.74
2023-01-10T04:24:51.381Z,72.83
2023-01-10T04:25:24.222Z,72.81
2023-01-10T04:25:56.957Z,72.77
2023-01-10T04:26:10.209Z,72.83
2023-01-10T04:26:23.029Z,72.72
2023-01-10T04:26:40.532Z,72.77
2023-01-10T04:26:53.670Z,72.73
2023-01-10T04:27:07.725Z,72.70
2023-01-10T04:27:20.540Z,72.67
2023-01-10T04:27:33.516Z,72.65
2023-01-10T04:27:46.324Z,72.74
2023-01-10T04:28:19.039Z,72.79
2023-01-10T04:28:35.748Z,72.89
2023-01-10T04:28:48.557Z,72.89
2023-01-10T04:29:21.357Z,72.87
2023-01-10T04:29:35.332Z,72.76
2023-01-10T04:29:48.141Z,72.74
2023-01-10T04:30:00.954Z,72.77
2023-01-10T04:30:13.794Z,72.69
2023-01-10T04:30:27.317Z,72.68
2023-01-10T04:30:43.601Z,72.68
2023-01-10T04:30:56.853Z,72.54
2023-01-10T04:31:09.679Z,72.56
2023-01-10T04:31:23.415Z,72.58
2023-01-10T04:31:36.907Z,72.59
2023-01-10T04:31:50.204Z,72.70
2023-01-10T04:32:03.132Z,72.85
2023-01-10T04:32:15.989Z,72.86
2023-01-10T04:32:29.370Z,72.78
2023-01-10T04:32:42.268Z,72.84
2023-01-10T04:32:55.895Z,72.83
2023-01-10T04:33:10.397Z,72.80
2023-01-10T04:33:23.263Z,72.79
2023-01-10T04:33:36.211Z,72.73
2023-01-10T04:33:51.215Z,72.69
2023-01-10T04:34:04.022Z,72.71
2023-01-10T04:34:17.254Z,72.75
2023-01-10T04:34:30.171Z,72.77
2023-01-10T04:34:43.469Z,72.69
2023-01-10T04:34:56.387Z,72.68
2023-01-10T04:35:11.255Z,72.82
2023-01-10T04:35:24.339Z,72.85
2023-01-10T04:35:37.205Z,72.87
2023-01-10T04:35:50.623Z,72.88
2023-01-10T04:36:03.572Z,72.85
2023-01-10T04:36:16.941Z,72.77
2023-01-10T04:36:29.883Z,72.86
2023-01-10T04:37:02.620Z,72.86
2023-01-10T04:37:15.424Z,72.77
2023-01-10T04:37:28.463Z,72.87
2023-01-10T04:37:41.262Z,72.95
2023-01-10T04:37:54.544Z,72.94
2023-01-10T04:38:07.405Z,72.92
2023-01-10T04:38:20.393Z,72.95
2023-01-10T04:38:33.408Z,72.99
2023-01-10T04:38:46.299Z,73.04
2023-01-10T04:38:59.161Z,73.05
2023-01-10T04:39:12.135Z,73.04
2023-01-10T04:39:25.172Z,72.98
2023-01-10T04:39:38.077Z,72.94
2023-01-10T04:39:51.081Z,72.89
2023-01-10T04:40:04.431Z,72.80
2023-01-10T04:40:19.782Z,72.80
2023-01-10T04:40:58.634Z,72.81
2023-01-10T04:41:11.701Z,72.82
2023-01-10T04:41:24.496Z,72.76
2023-01-10T04:41:38.190Z,72.73
2023-01-10T04:41:51.121Z,72.74
2023-01-10T04:42:23.884Z,72.79
2023-01-10T04:42:36.916Z,72.93
2023-01-10T04:42:49.950Z,73.00
2023-01-10T04:43:02.944Z,72.96
2023-01-10T04:43:15.822Z,73.02
2023-01-10T04:43:28.661Z,73.07
2023-01-10T04:43:42.555Z,73.11
2023-01-10T04:43:55.551Z,72.93
2023-01-10T04:44:08.793Z,72.94
2023-01-10T04:44:21.689Z,72.95
2023-01-10T04:44:34.557Z,72.89
2023-01-10T04:44:47.884Z,72.80
2023-01-10T04:45:00.903Z,72.69
2023-01-10T04:45:20.351Z,72.78
2023-01-10T04:45:33.201Z,72.72
2023-01-10T04:45:46.130Z,72.71
2023-01-10T04:45:59.171Z,72.72
2023-01-10T04:46:12.083Z,72.76
2023-01-10T04:46:25.942Z,72.79
2023-01-10T04:46:38.797Z,72.79
2023-01-10T04:46:51.670Z,72.74
2023-01-10T04:47:05.797Z,72.69
2023-01-10T04:47:18.623Z,72.66
2023-01-10T04:47:31.474Z,72.73
2023-01-10T04:47:50.887Z,72.79
2023-01-10T04:48:04.204Z,72.80
2023-01-10T04:48:19.504Z,72.75
2023-01-10T04:48:32.398Z,72.72
2023-01-10T04:48:45.657Z,72.78
2023-01-10T04:48:58.785Z,72.79
2023-01-10T04:49:11.739Z,72.81
2023-01-10T04:49:25.096Z,72.79
2023-01-10T04:49:37.916Z,72.79
2023-01-10T04:49:51.200Z,72.77
2023-01-10T04:50:06.635Z,72.66
2023-01-10T04:50:19.572Z,72.63
2023-01-10T04:50:32.477Z,72.72
2023-01-10T04:50:51.763Z,72.77
2023-01-10T04:51:04.736Z,72.83
2023-01-10T04:51:17.721Z,72.90
2023-01-10T04:51:31.023Z,72.86
2023-01-10T04:51:43.830Z,72.88
2023-01-10T04:51:56.720Z,72.87
2023-01-10T04:52:10.686Z,72.77
2023-01-10T04:52:26.040Z,72.64
2023-01-10T04:52:38.852Z,72.60
2023-01-10T04:52:51.771Z,72.56
2023-01-10T04:53:05.065Z,72.43
2023-01-10T04:53:18.318Z,72.33
2023-01-10T04:53:31.496Z,72.29
2023-01-10T04:53:44.316Z,72.21
2023-01-10T04:53:57.164Z,72.24
2023-01-10T04:54:09.970Z,72.28
2023-01-10T04:54:23.269Z,72.26
2023-01-10T04:54:36.150Z,72.33
2023-01-10T04:54:48.975Z,72.41
2023-01-10T04:55:01.867Z,72.38
2023-01-10T04:55:14.674Z,72.39
2023-01-10T04:55:27.542Z,72.41
2023-01-10T04:55:40.403Z,72.50
2023-01-10T04:55:53.297Z,72.56
2023-01-10T04:56:10.343Z,72.65
2023-01-10T04:56:43.071Z,72.60
2023-01-10T04:56:56.061Z,72.64
2023-01-10T04:57:08.920Z,72.67
2023-01-10T04:57:21.837Z,72.74
2023-01-10T04:57:34.807Z,72.77
2023-01-10T04:57:47.876Z,72.87
2023-01-10T04:58:02.351Z,72.91
2023-01-10T04:58:15.563Z,72.89
2023-01-10T04:58:28.364Z,72.85
2023-01-10T04:58:41.710Z,72.87
2023-01-10T04:58:54.957Z,72.89
2023-01-10T04:59:10.052Z,72.83
2023-01-10T04:59:22.967Z,72.69
2023-01-10T04:59:36.196Z,72.59
2023-01-10T04:59:49.373Z,72.51
2023-01-10T05:00:04.541Z,72.44
2023-01-10T05:00:17.883Z,72.41
2023-01-10T05:00:30.813Z,72.48
2023-01-10T05:00:44.007Z,72.56
2023-01-10T05:00:56.855Z,72.53
2023-01-10T05:01:14.517Z,72.39
2023-01-10T05:01:27.469Z,72.41
2023-01-10T05:01:40.662Z,72.40
2023-01-10T05:01:53.621Z,72.50
2023-01-10T05:02:06.746Z,72.68
2023-01-10T05:02:20.192Z,72.71
2023-01-10T05:02:33.305Z,72.67
2023-01-10T05:02:46.425Z,72.70
2023-01-10T05:03:20.399Z,72.77
2023-01-10T05:03:33.541Z,72.81
2023-01-10T05:03:50.043Z,72.74
2023-01-10T05:04:03.472Z,72.76
2023-01-10T05:04:16.326Z,72.86
2023-01-10T05:05:08.538Z,72.79
2023-01-10T05:05:21.330Z,72.95
2023-01-10T05:05:34.361Z,72.81
2023-01-10T05:05:51.456Z,72.62
2023-01-10T05:06:04.964Z,72.53
2023-01-10T05:06:22.060Z,72.58
2023-01-10T05:06:35.356Z,72.62
2023-01-10T05:06:49.485Z,72.74
2023-01-10T05:07:02.404Z,72.84
2023-01-10T05:07:15.406Z,72.92
2023-01-10T05:07:28.231Z,72.93
2023-01-10T05:07:41.253Z,72.84
2023-01-10T05:07:56.722Z,72.86
2023-01-10T05:08:09.544Z,72.83
2023-01-10T05:08:22.343Z,72.69
2023-01-10T05:08:35.233Z,72.60
2023-01-10T05:08:48.142Z,72.70
2023-01-10T05:09:01.113Z,72.86
2023-01-10T05:09:13.936Z,72.90
2023-01-10T05:09:26.833Z,72.83